Report METAR

 

LIBD - Bari/Palese Macc, Italy
Distance from station: ESE 27km
Dati ricevuti: 19/08/2022 22:50
Sereno
Sereno
 Vento da O
Vento: O 15 km/h
Temperatura: 26°C
P.to Rugiada: 13°C
Umidità: 45%
Barometro: 1009 hPa
Summary: Sereno
Visibility: superiore a 10 km
2022/08/19 20:50 LIBD 192050Z 26008KT CAVOK 26/13 Q1009
LIBV - Gioia Del Colle, Italy
Distance from station: SE 63km
Dati ricevuti: 19/08/2022 22:55
Sereno
Sereno
 Vento da NNE
Vento: NNE 9 km/h
Temperatura: 23°C
P.to Rugiada: 13°C
Umidità: 53%
Barometro: 1011 hPa
Summary: Sereno
Visibility: superiore a 10 km
2022/08/19 20:55 LIBV 192055Z 03005KT CAVOK 23/13 Q1011
 
LIBA - Amendola (it-Afb, Italy
Distance from station: ONO 72km
Dati ricevuti: 19/08/2022 22:55
Few Clouds
Few Clouds
 Vento da ONO
Vento: ONO 17 km/h
Temperatura: 23°C
P.to Rugiada: 16°C
Umidità: 65%
Barometro: 1010 hPa
Nuvole: Few Clouds
Visibility: 10 km
Cloud details: Few Clouds 1219 m
2022/08/19 20:55 LIBA 192055Z 29009KT 9999 FEW040 23/16 Q1010
LIBF - Foggia/Gino Lisa, Italy
Distance from station: ONO 84km
Dati ricevuti: 19/08/2022 17:50
DATI Obsoleti
Few Clouds
Few Clouds
 Vento da OSO
Vento: OSO 33 km/h
Temperatura: 31°C
P.to Rugiada: 12°C
Umidità: 31%
Barometro: 1009 hPa
Nuvole: Few Clouds
Visibility: 10 km
Cloud details: Few Clouds 1219 m
2022/08/19 15:50 LIBF 191550Z 25018KT 9999 FEW040 31/12 Q1009
 
LIBH - Marina Di Ginosa, Italy
Distance from station: SSE 97km
Dati ricevuti: 19/08/2022 19:55
DATI Obsoleti
Few Clouds
Few Clouds
 Vento da O
Vento: O 20 km/h
Temperatura: 31°C
Indice di Calore: 33°C
P.to Rugiada: 19°C
Umidità: 49%
Barometro: 1007 hPa
Nuvole: Few Clouds
Visibility: 10 km
Cloud details: Few Clouds 914 m
2022/08/19 17:55 LIBH 191755Z 26011KT 230V310 9999 FEW030 31/19 Q1007 RMK SCT SCT080 QUK 2 QUL 1 SW VIS MAR 15 KM VIS MIN 9999
LIRT - Trevico, Italy
Distance from station: OSO 109km
Dati ricevuti: 19/08/2022 19:55
DATI Obsoleti
Parz. nuvoloso
Parz. nuvoloso
 Vento da NO
Vento: NO 22 km/h
Temperatura: 18°C
P.to Rugiada: 16°C
Umidità: 88%
Barometro: 1015 hPa
Nuvole: Parz. nuvoloso
Visibility: 10 km
Cloud details: Parz. nuvoloso 183 m
2022/08/19 17:55 LIRT 191755Z 31012KT 9999 SCT006 18/16 Q1015
 
LIBG - Grottaglie(Civ/A, Italy
Distance from station: SE 110km
Dati ricevuti: 19/08/2022 19:50
DATI Obsoleti
Few Clouds
Few Clouds
 Vento da NNE
Vento: NNE 15 km/h
Temperatura: 30°C
Indice di Calore: 32°C
P.to Rugiada: 20°C
Umidità: 55%
Barometro: 1008 hPa
Nuvole: Few Clouds
Visibility: 10 km
Cloud details: Few Clouds 914 m
2022/08/19 17:50 LIBG 191750Z 02008KT 9999 FEW030 30/20 Q1008
LIBR - Brindisi/Casale, Italy
Distance from station: ESE 139km
Dati ricevuti: 19/08/2022 22:50
Sereno
Sereno
 Vento da NO
Vento: NO 9 km/h
Temperatura: 27°C
Indice di Calore: 30°C
P.to Rugiada: 23°C
Umidità: 79%
Barometro: 1009 hPa
Summary: Sereno
Visibility: superiore a 10 km
2022/08/19 20:50 LIBR 192050Z 31005KT CAVOK 27/23 Q1009
 
LIRI - Pontecagnano (af, Italy
Distance from station: OSO 149km
Dati ricevuti: 19/08/2022 18:50
DATI Obsoleti
Sereno
Sereno
 Vento da OSO
Vento: OSO 22 km/h
Temperatura: 28°C
Indice di Calore: 29°C
P.to Rugiada: 20°C
Umidità: 62%
Barometro: 1011 hPa
Summary: Sereno
Visibility: superiore a 10 km
2022/08/19 16:50 LIRI 191650Z 25012KT CAVOK 28/20 Q1011
LIBN - Lecce (it-Afb), Italy
Distance from station: SE 179km
Dati ricevuti: 19/08/2022 22:55
Sereno
Sereno
 Vento da N
Vento: N 7 km/h
Temperatura: 28°C
Indice di Calore: 32°C
P.to Rugiada: 25°C
Umidità: 84%
Barometro: 1009 hPa
Summary: Sereno
Visibility: superiore a 10 km
2022/08/19 20:55 LIBN 192055Z 35004KT CAVOK 28/25 Q1009
 
LIRN - Naples/Capodichi, Italy
Distance from station: OSO 188km
Dati ricevuti: 19/08/2022 22:50
Pioggia, Nuvoloso
Pioggia, Nuvoloso
 Vento da Variabile
Vento: Variabile 11 km/h
Temperatura: 25°C
P.to Rugiada: 20°C
Umidità: 74%
Barometro: 1012 hPa
Summary: Pioggia
Nuvole: Molto nuvoloso
Visibility: 10 km
Cloud details: Molto nuvoloso 1067 m
2022/08/19 20:50 LIRN 192050Z VRB06KT 9999 RA BKN035 25/20 Q1012 NOSIG